Time;durP1;ratioP1;P1;durP2;ratioP2;P2;SDS_P1;SDS_P2;PMS_P1;PMS_P2;Temp;Humidity;BMP_temperature;BMP_pressure;BME280_temperature;BME280_humidity;BME280_pressure;Samples;Min_cycle;Max_cycle;Signal;HPM_P1;HPM_P2
2022/01/25 00:26:37;;;;;;;38.55;23.08;;;5.00;99.90;;;;;;5051904;28;20073;-81
2022/01/25 00:31:31;;;;;;;41.00;23.88;;;5.40;99.90;;;;;;5050826;28;20049;-80
2022/01/25 00:33:57;;;;;;;41.88;23.88;;;4.30;99.90;;;;;;5020938;28;20045;-81
2022/01/25 00:36:25;;;;;;;40.20;23.17;;;4.50;99.90;;;;;;5051730;28;20042;-81
2022/01/25 00:38:52;;;;;;;42.13;23.83;;;4.40;99.90;;;;;;5026271;28;20406;-81
2022/01/25 00:41:19;;;;;;;38.53;22.23;;;4.30;99.90;;;;;;5022702;28;20111;-80
2022/01/25 00:43:45;;;;;;;41.45;24.17;;;4.30;99.90;;;;;;5037809;28;20474;-81
2022/01/25 00:46:12;;;;;;;42.40;24.40;;;4.30;99.90;;;;;;5055025;28;20756;-81
2022/01/25 00:54:05;;;;;;;40.65;22.63;;;4.30;99.90;;;;;;5053323;28;20065;-81
2022/01/25 00:56:34;;;;;;;41.67;24.05;;;4.30;99.90;;;;;;5018661;28;20077;-81
2022/01/25 00:59:03;;;;;;;43.60;24.08;;;4.30;99.90;;;;;;5039030;28;20042;-80
2022/01/25 01:01:29;;;;;;;43.67;23.83;;;4.60;99.90;;;;;;4994936;28;20060;-81
2022/01/25 01:03:56;;;;;;;40.03;24.02;;;5.00;99.90;;;;;;5053336;28;20045;-81
2022/01/25 01:06:22;;;;;;;43.15;25.02;;;4.30;99.90;;;;;;5018469;28;20427;-81
2022/01/25 01:08:49;;;;;;;43.17;24.80;;;4.30;99.90;;;;;;5037191;28;20042;-81
2022/01/25 01:11:21;;;;;;;45.60;25.73;;;4.30;99.90;;;;;;5021389;28;20046;-81
2022/01/25 01:13:58;;;;;;;46.92;25.35;;;4.30;99.90;;;;;;5035723;28;20076;-80
2022/01/25 01:49:00;;;;;;;48.20;23.70;;;3.00;99.90;;;;;;5040647;28;20053;-81
2022/01/25 01:53:52;;;;;;;44.97;24.70;;;4.20;99.90;;;;;;5050319;28;20117;-81
2022/01/25 01:56:18;;;;;;;44.88;25.63;;;4.30;99.90;;;;;;5051296;28;20575;-81
2022/01/25 01:58:43;;;;;;;44.45;23.77;;;4.50;99.90;;;;;;5052109;28;20384;-81
2022/01/25 02:01:13;;;;;;;46.60;24.35;;;4.30;99.90;;;;;;5017663;28;20057;-81
2022/01/25 02:03:39;;;;;;;46.10;24.60;;;4.30;99.90;;;;;;5010046;28;20045;-81
2022/01/25 02:06:05;;;;;;;45.42;25.30;;;4.30;99.90;;;;;;5017360;28;20114;-81
2022/01/25 02:08:31;;;;;;;44.10;25.42;;;4.70;99.90;;;;;;5019384;28;20378;-81
2022/01/25 02:10:56;;;;;;;42.83;25.08;;;4.30;99.90;;;;;;5052020;28;20848;-82
2022/01/25 02:13:22;;;;;;;47.80;26.48;;;4.30;99.90;;;;;;4986606;28;20046;-81
2022/01/25 02:15:50;;;;;;;43.67;24.52;;;5.30;99.90;;;;;;5017141;28;20056;-81
2022/01/25 02:23:46;;;;;;;44.13;24.73;;;4.20;99.90;;;;;;5058390;28;20140;-81
2022/01/25 02:26:13;;;;;;;38.08;22.95;;;4.30;99.90;;;;;;5034536;28;20136;-81
2022/01/25 02:28:41;;;;;;;43.20;23.10;;;4.20;99.90;;;;;;5035373;28;20563;-81
2022/01/25 02:31:10;;;;;;;45.08;26.13;;;5.40;99.90;;;;;;5009394;28;20053;-81
2022/01/25 02:33:37;;;;;;;44.15;24.00;;;4.30;99.90;;;;;;5010405;28;20136;-82
2022/01/25 02:36:07;;;;;;;41.83;23.58;;;4.20;99.90;;;;;;5001482;28;20050;-81
2022/01/25 02:38:34;;;;;;;44.67;24.52;;;4.20;99.90;;;;;;5015561;28;20087;-82
2022/01/25 02:41:01;;;;;;;43.13;25.02;;;4.30;99.90;;;;;;5036608;28;20050;-81
2022/01/25 02:43:28;;;;;;;41.80;24.98;;;4.20;99.90;;;;;;5018014;28;20050;-81
2022/01/25 02:49:12;;;;;;;42.17;23.55;;;4.30;99.90;;;;;;5050195;28;20062;-81
2022/01/25 02:51:45;;;;;;;43.08;24.63;;;4.20;99.90;;;;;;5017395;28;20399;-81
2022/01/25 02:54:12;;;;;;;37.72;22.83;;;4.20;99.90;;;;;;5018587;28;20048;-82
2022/01/25 02:56:40;;;;;;;42.15;24.55;;;5.60;99.90;;;;;;5035970;28;20084;-81
2022/01/25 02:59:07;;;;;;;39.45;23.10;;;4.20;99.90;;;;;;5002281;28;20107;-81
2022/01/25 03:01:34;;;;;;;44.35;24.05;;;4.20;99.90;;;;;;5019514;28;20069;-81
2022/01/25 03:04:00;;;;;;;40.47;23.30;;;4.80;99.90;;;;;;5019653;28;20069;-82
2022/01/25 03:06:26;;;;;;;44.25;24.30;;;4.20;99.90;;;;;;5004653;28;20049;-81
2022/01/25 03:08:52;;;;;;;43.00;24.35;;;5.40;99.90;;;;;;5002991;28;20046;-81
2022/01/25 03:11:21;;;;;;;40.55;22.80;;;4.20;99.90;;;;;;5009198;28;20045;-81
2022/01/25 03:13:52;;;;;;;41.35;22.65;;;4.20;99.90;;;;;;5000888;28;20399;-81
2022/01/25 03:16:28;;;;;;;43.13;24.70;;;4.70;99.90;;;;;;5005922;28;20114;-81
2022/01/25 03:18:56;;;;;;;42.88;24.27;;;4.30;99.90;;;;;;5012723;28;20390;-81
2022/01/25 03:23:55;;;;;;;43.17;24.48;;;4.20;99.90;;;;;;5051865;28;20049;-80
2022/01/25 03:26:22;;;;;;;44.38;24.63;;;4.20;99.90;;;;;;5007566;28;20041;-81
2022/01/25 03:28:48;;;;;;;44.55;24.30;;;4.20;99.90;;;;;;5048671;28;20048;-81
2022/01/25 03:31:14;;;;;;;45.88;24.42;;;4.20;99.90;;;;;;5001773;28;20050;-80
2022/01/25 03:33:41;;;;;;;44.03;24.88;;;4.20;99.90;;;;;;5032539;28;20046;-81
2022/01/25 03:36:07;;;;;;;44.13;25.13;;;4.20;99.90;;;;;;5013252;28;20045;-81
2022/01/25 03:38:38;;;;;;;46.30;25.33;;;5.00;99.90;;;;;;5017715;28;20124;-81
2022/01/25 03:41:05;;;;;;;45.78;24.67;;;4.20;99.90;;;;;;5035359;28;20044;-81
2022/01/25 03:43:31;;;;;;;44.90;25.38;;;4.20;99.90;;;;;;5052487;28;20053;-81
2022/01/25 03:46:06;;;;;;;45.10;24.45;;;4.20;99.90;;;;;;5020160;28;20049;-81
2022/01/25 03:50:57;;;;;;;48.70;25.73;;;4.20;99.90;;;;;;5041312;28;20104;-81
2022/01/25 03:53:23;;;;;;;48.67;26.05;;;4.20;99.90;;;;;;5007122;28;20076;-81
2022/01/25 03:55:49;;;;;;;43.25;24.52;;;4.50;99.90;;;;;;5034379;28;20041;-81
2022/01/25 03:58:15;;;;;;;44.22;24.92;;;4.20;99.90;;;;;;4996354;28;20124;-81
2022/01/25 04:00:44;;;;;;;48.33;25.27;;;4.50;99.90;;;;;;5041592;28;20065;-81
2022/01/25 04:03:18;;;;;;;45.53;24.50;;;5.00;99.90;;;;;;5038067;28;20100;-81
2022/01/25 04:08:11;;;;;;;47.72;25.52;;;4.20;99.90;;;;;;5021133;28;20050;-82
2022/01/25 04:10:37;;;;;;;48.83;26.17;;;4.20;99.90;;;;;;5007711;28;20051;-82
2022/01/25 04:13:04;;;;;;;48.35;24.92;;;4.20;99.90;;;;;;5024529;28;20587;-82
2022/01/25 04:15:30;;;;;;;45.03;24.65;;;4.20;99.90;;;;;;5021343;28;20045;-82
2022/01/25 04:18:50;;;;;;;47.58;25.90;;;4.20;99.90;;;;;;5025840;28;20625;-82
2022/01/25 04:20:56;;;;;;;44.55;24.10;;;5.30;99.90;;;;;;5037664;28;20058;-82
2022/01/25 04:26:06;;;;;;;46.38;25.55;;;4.20;99.90;;;;;;5020760;28;20104;-81
2022/01/25 04:28:32;;;;;;;46.63;25.17;;;4.20;99.90;;;;;;5001992;28;20124;-82
2022/01/25 04:30:57;;;;;;;48.78;25.25;;;5.10;99.90;;;;;;4994451;28;20054;-81
2022/01/25 04:33:27;;;;;;;47.63;26.30;;;5.20;99.90;;;;;;5007682;28;20049;-81
2022/01/25 04:36:24;;;;;;;44.05;24.50;;;4.40;99.90;;;;;;5019597;28;20083;-82
2022/01/25 04:49:53;;;;;;;46.75;25.65;;;4.20;99.90;;;;;;5016830;28;20046;-81
2022/01/25 04:52:21;;;;;;;42.38;23.85;;;4.20;99.90;;;;;;5024583;28;20034;-81
2022/01/25 04:55:15;;;;;;;49.33;25.58;;;4.20;99.90;;;;;;5056466;28;20506;-81
2022/01/25 04:57:49;;;;;;;49.85;24.92;;;4.10;99.90;;;;;;5023624;28;20570;-81
2022/01/25 05:00:18;;;;;;;48.65;24.40;;;5.50;99.90;;;;;;5025150;28;20630;-82
2022/01/25 05:02:53;;;;;;;45.67;24.63;;;4.30;99.90;;;;;;5050560;28;20148;-80
2022/01/25 05:05:32;;;;;;;47.85;24.90;;;4.20;99.90;;;;;;4990380;28;20042;-80
2022/01/25 05:10:29;;;;;;;45.35;24.58;;;4.20;99.90;;;;;;5020940;28;20126;-80
2022/01/25 05:13:13;;;;;;;45.03;24.15;;;4.20;99.90;;;;;;5051433;28;20058;-80
2022/01/25 05:16:05;;;;;;;47.72;24.80;;;4.20;99.90;;;;;;5023054;28;20049;-81
2022/01/25 05:18:36;;;;;;;45.88;25.33;;;4.20;99.90;;;;;;5031739;28;20076;-81
2022/01/25 05:23:47;;;;;;;47.55;25.02;;;5.40;99.90;;;;;;5005926;28;20041;-81
2022/01/25 05:26:12;;;;;;;46.33;24.45;;;4.20;99.90;;;;;;5019444;28;20046;-81
2022/01/25 05:28:39;;;;;;;50.20;26.42;;;4.20;99.90;;;;;;5052984;28;20050;-80
2022/01/25 05:31:05;;;;;;;47.28;25.80;;;4.10;99.90;;;;;;5003476;28;20046;-81
2022/01/25 05:33:30;;;;;;;46.92;26.52;;;4.50;99.90;;;;;;5026375;28;20052;-80
2022/01/25 05:35:57;;;;;;;50.67;26.67;;;3.10;99.90;;;;;;5024695;28;20045;-80
2022/01/25 05:38:23;;;;;;;46.15;26.00;;;5.30;99.90;;;;;;5036820;28;20041;-80
2022/01/25 05:40:58;;;;;;;42.85;24.30;;;5.20;99.90;;;;;;5016974;28;20164;-80
2022/01/25 05:48:35;;;;;;;46.83;25.90;;;4.10;99.90;;;;;;5051332;28;20081;-80
2022/01/25 05:51:02;;;;;;;51.17;26.88;;;4.10;99.90;;;;;;5019299;28;20100;-80
2022/01/25 05:53:27;;;;;;;51.28;27.42;;;4.10;99.90;;;;;;5038498;28;20104;-81
2022/01/25 05:55:54;;;;;;;48.33;25.50;;;4.20;99.90;;;;;;4986828;28;20042;-80
2022/01/25 05:58:20;;;;;;;49.53;26.30;;;4.10;99.90;;;;;;5019876;28;20501;-80
2022/01/25 06:00:46;;;;;;;51.30;26.08;;;4.20;99.90;;;;;;5001623;28;20116;-81
2022/01/25 06:03:12;;;;;;;51.53;25.30;;;4.30;99.90;;;;;;5033293;28;20080;-81
2022/01/25 06:05:38;;;;;;;45.40;24.88;;;4.20;99.90;;;;;;5032939;28;20553;-81
2022/01/25 06:08:04;;;;;;;44.78;25.08;;;4.10;99.90;;;;;;5007109;28;20041;-80
2022/01/25 06:10:31;;;;;;;49.28;26.40;;;4.10;99.90;;;;;;5015252;28;20095;-81
2022/01/25 06:12:57;;;;;;;45.10;24.95;;;4.10;99.90;;;;;;5003029;28;20119;-81
2022/01/25 06:15:25;;;;;;;48.47;26.20;;;4.90;99.90;;;;;;5019660;28;20419;-82
2022/01/25 06:17:54;;;;;;;50.72;27.05;;;4.10;99.90;;;;;;5025519;28;20043;-81
2022/01/25 06:20:20;;;;;;;48.80;26.63;;;4.10;99.90;;;;;;5017251;28;20042;-81
2022/01/25 06:22:46;;;;;;;49.75;27.08;;;4.10;99.90;;;;;;5002220;28;20107;-81
2022/01/25 06:25:12;;;;;;;46.25;24.63;;;3.80;99.90;;;;;;5017126;28;20053;-81
2022/01/25 06:27:42;;;;;;;48.55;25.77;;;4.10;99.90;;;;;;5033802;28;20496;-81
2022/01/25 06:30:11;;;;;;;46.63;25.60;;;5.30;99.90;;;;;;5018858;28;20088;-81
2022/01/25 06:32:37;;;;;;;50.65;26.38;;;3.20;99.90;;;;;;5002881;28;20088;-81
2022/01/25 06:35:05;;;;;;;50.35;26.60;;;4.10;99.90;;;;;;4991323;28;20065;-81
2022/01/25 06:37:31;;;;;;;47.17;26.25;;;4.10;99.90;;;;;;5050616;28;20186;-81
2022/01/25 06:39:58;;;;;;;47.72;26.63;;;4.10;99.90;;;;;;5041223;28;20141;-81
2022/01/25 06:42:29;;;;;;;44.38;25.83;;;4.10;99.90;;;;;;5003614;28;20041;-81
2022/01/25 06:44:59;;;;;;;50.13;26.55;;;4.10;99.90;;;;;;4985648;28;20057;-81
2022/01/25 06:47:25;;;;;;;52.45;26.83;;;5.40;99.90;;;;;;5018525;28;20045;-81
2022/01/25 06:49:51;;;;;;;50.88;25.65;;;4.10;99.90;;;;;;5002513;28;20045;-80
2022/01/25 06:52:17;;;;;;;52.90;27.38;;;4.20;99.90;;;;;;5015371;28;20048;-81
2022/01/25 06:54:42;;;;;;;47.67;26.38;;;4.10;99.90;;;;;;5023444;28;20053;-81
2022/01/25 06:57:09;;;;;;;46.53;25.48;;;4.20;99.90;;;;;;5018043;28;20041;-80
2022/01/25 06:59:35;;;;;;;51.58;27.17;;;4.10;99.90;;;;;;5002329;28;20056;-79
2022/01/25 07:02:01;;;;;;;45.63;26.02;;;4.20;99.90;;;;;;5018202;28;20056;-80
2022/01/25 07:04:27;;;;;;;55.90;27.45;;;4.10;99.90;;;;;;5049563;28;20042;-80
2022/01/25 07:06:53;;;;;;;50.58;25.88;;;4.20;99.90;;;;;;5032573;28;20042;-81
2022/01/25 07:09:19;;;;;;;46.65;25.90;;;4.10;99.90;;;;;;5001957;28;20045;-80
2022/01/25 07:11:44;;;;;;;44.10;23.77;;;5.20;99.90;;;;;;4970224;28;20484;-80
2022/01/25 07:14:10;;;;;;;48.80;26.02;;;5.30;99.90;;;;;;5016210;28;20513;-81
2022/01/25 07:16:36;;;;;;;50.70;27.38;;;5.20;99.90;;;;;;5043386;28;20076;-80
2022/01/25 07:19:02;;;;;;;50.33;25.80;;;4.40;99.90;;;;;;5031982;28;20085;-80
2022/01/25 07:21:28;;;;;;;50.92;26.80;;;4.20;99.90;;;;;;5032698;28;20052;-80
2022/01/25 07:24:04;;;;;;;51.80;27.63;;;4.20;99.90;;;;;;5034507;28;20103;-81
2022/01/25 07:26:33;;;;;;;51.17;25.85;;;4.10;99.90;;;;;;5049676;28;20037;-81
2022/01/25 07:29:01;;;;;;;48.55;26.52;;;5.50;99.90;;;;;;5031326;28;20044;-81
2022/01/25 07:31:27;;;;;;;48.83;26.35;;;4.30;99.90;;;;;;5015481;28;20045;-81
2022/01/25 07:33:53;;;;;;;47.53;25.42;;;4.10;99.90;;;;;;5008315;28;20103;-80
2022/01/25 07:36:19;;;;;;;46.05;24.67;;;5.40;99.90;;;;;;5033202;28;20041;-80
2022/01/25 07:38:45;;;;;;;48.90;25.33;;;4.20;99.90;;;;;;5024083;28;20068;-83
2022/01/25 07:41:11;;;;;;;46.03;25.20;;;4.20;99.90;;;;;;5052910;28;20073;-83
2022/01/25 07:43:37;;;;;;;47.10;25.60;;;4.20;99.90;;;;;;4984691;28;20079;-82
2022/01/25 07:46:04;;;;;;;49.47;24.92;;;4.10;99.90;;;;;;5017803;28;20057;-83
2022/01/25 07:48:31;;;;;;;53.83;27.40;;;4.20;99.90;;;;;;5031957;28;20515;-84
2022/01/25 07:50:57;;;;;;;45.05;25.25;;;4.10;99.90;;;;;;5031252;28;20050;-83
2022/01/25 07:53:23;;;;;;;49.22;26.52;;;4.10;99.90;;;;;;4998882;28;20049;-84
2022/01/25 07:55:49;;;;;;;47.95;25.10;;;4.20;99.90;;;;;;5018209;28;20076;-84
2022/01/25 07:58:15;;;;;;;43.95;24.48;;;4.10;99.90;;;;;;5001580;28;20046;-84
2022/01/25 08:00:41;;;;;;;48.28;25.92;;;5.70;99.90;;;;;;5033672;28;20074;-84
2022/01/25 08:03:07;;;;;;;48.88;26.27;;;4.20;99.90;;;;;;5015074;28;20131;-84
2022/01/25 08:05:33;;;;;;;52.50;25.70;;;4.20;99.90;;;;;;5016629;28;20491;-84
2022/01/25 08:08:00;;;;;;;50.30;26.75;;;4.10;99.90;;;;;;5000635;28;20084;-84
2022/01/25 08:10:26;;;;;;;46.55;24.90;;;4.10;99.90;;;;;;5016719;28;20048;-81
2022/01/25 08:12:52;;;;;;;48.30;26.33;;;4.30;99.90;;;;;;5035949;28;20083;-81
2022/01/25 08:15:18;;;;;;;47.30;24.83;;;3.30;99.90;;;;;;5031463;28;20874;-81
2022/01/25 08:17:43;;;;;;;51.45;25.85;;;4.20;99.90;;;;;;5020665;28;20046;-82
2022/01/25 08:20:09;;;;;;;51.10;26.25;;;2.90;99.90;;;;;;5046034;28;20069;-81
2022/01/25 08:22:35;;;;;;;50.97;26.15;;;4.20;99.90;;;;;;5030809;28;20045;-81
2022/01/25 08:25:03;;;;;;;49.28;25.00;;;5.10;99.90;;;;;;5006512;28;20115;-82
2022/01/25 08:27:30;;;;;;;47.05;25.38;;;4.20;99.90;;;;;;5015682;28;20081;-81
2022/01/25 08:29:56;;;;;;;45.88;25.60;;;4.20;99.90;;;;;;5046958;28;20170;-81
2022/01/25 08:32:22;;;;;;;49.00;25.60;;;4.20;99.90;;;;;;5013315;28;20140;-81
2022/01/25 08:34:48;;;;;;;49.08;25.98;;;4.20;99.90;;;;;;5016431;28;20049;-81
2022/01/25 08:37:15;;;;;;;47.05;25.50;;;4.20;99.90;;;;;;5006388;28;20056;-81
2022/01/25 08:39:41;;;;;;;49.33;26.20;;;4.20;99.90;;;;;;5002415;28;20060;-81
2022/01/25 08:42:08;;;;;;;47.00;25.42;;;4.20;99.90;;;;;;5020939;28;20053;-82
2022/01/25 08:44:34;;;;;;;50.53;26.02;;;4.90;99.90;;;;;;5028371;28;20053;-81
2022/01/25 08:47:00;;;;;;;48.20;26.33;;;4.20;99.90;;;;;;5019272;28;20053;-82
2022/01/25 08:49:27;;;;;;;48.55;25.85;;;4.90;99.90;;;;;;5020173;28;20083;-80
2022/01/25 08:51:53;;;;;;;49.17;25.45;;;5.00;99.90;;;;;;5020855;28;20053;-80
2022/01/25 08:54:19;;;;;;;47.20;26.38;;;4.50;99.90;;;;;;5019246;28;20041;-80
2022/01/25 08:56:45;;;;;;;49.53;26.48;;;4.20;99.90;;;;;;5020744;28;20054;-80
2022/01/25 08:59:11;;;;;;;46.00;25.00;;;4.70;99.90;;;;;;5035635;28;20339;-80
2022/01/25 09:01:38;;;;;;;48.70;24.67;;;4.30;99.90;;;;;;5019106;28;20422;-80
2022/01/25 09:04:04;;;;;;;47.53;24.48;;;4.20;99.90;;;;;;5011197;28;20484;-80
2022/01/25 09:06:30;;;;;;;46.15;25.40;;;4.30;99.90;;;;;;5020904;28;20042;-80
2022/01/25 09:09:01;;;;;;;50.35;25.10;;;5.10;99.90;;;;;;5019966;28;20769;-80
2022/01/25 09:11:28;;;;;;;47.17;25.30;;;4.30;99.90;;;;;;5037707;28;20100;-80
2022/01/25 09:13:53;;;;;;;48.60;25.77;;;4.30;99.90;;;;;;5053469;28;20159;-80
2022/01/25 09:16:19;;;;;;;47.78;25.58;;;4.30;99.90;;;;;;5018943;28;20109;-80
2022/01/25 09:18:45;;;;;;;53.05;25.70;;;4.30;99.90;;;;;;5004336;28;20052;-80
2022/01/25 09:21:11;;;;;;;48.13;26.08;;;4.30;99.90;;;;;;5005807;28;20037;-80
2022/01/25 09:23:37;;;;;;;48.97;25.92;;;4.60;99.90;;;;;;5039729;28;20525;-80
2022/01/25 09:26:04;;;;;;;46.88;25.00;;;4.30;99.90;;;;;;5003750;28;20060;-80
2022/01/25 09:28:30;;;;;;;52.67;25.15;;;4.30;99.90;;;;;;5052370;28;20140;-80
2022/01/25 09:30:56;;;;;;;46.97;24.42;;;4.30;99.90;;;;;;5019918;28;20163;-80
2022/01/25 09:33:22;;;;;;;48.83;24.85;;;4.30;99.90;;;;;;5017217;28;20606;-80
2022/01/25 09:35:49;;;;;;;48.85;25.48;;;4.70;99.90;;;;;;5003782;28;20061;-80
2022/01/25 09:38:16;;;;;;;49.13;25.95;;;4.60;99.90;;;;;;5001729;28;20046;-80
2022/01/25 09:40:42;;;;;;;48.72;25.80;;;4.40;99.90;;;;;;5003585;28;20045;-80
2022/01/25 09:43:08;;;;;;;52.20;25.60;;;4.30;99.90;;;;;;5018577;28;20061;-80
2022/01/25 09:45:36;;;;;;;48.80;25.30;;;4.30;99.90;;;;;;5036623;28;20068;-80
2022/01/25 09:48:03;;;;;;;49.92;24.65;;;4.70;99.90;;;;;;5036534;28;20041;-84
2022/01/25 09:50:29;;;;;;;46.90;24.42;;;4.40;99.90;;;;;;5009842;28;20050;-84
2022/01/25 09:52:56;;;;;;;46.08;24.60;;;5.30;99.90;;;;;;5036832;28;20045;-81
2022/01/25 09:55:27;;;;;;;47.95;24.15;;;4.40;99.90;;;;;;5018438;28;20053;-81
2022/01/25 09:57:53;;;;;;;47.22;24.25;;;4.40;99.90;;;;;;5019128;28;20052;-81
2022/01/25 10:00:22;;;;;;;44.10;24.73;;;4.60;99.90;;;;;;5034687;28;20065;-81
2022/01/25 10:05:33;;;;;;;45.22;24.85;;;5.60;99.90;;;;;;5052033;28;20049;-81
2022/01/25 10:07:59;;;;;;;46.33;24.67;;;4.50;99.90;;;;;;5043101;28;20045;-81
2022/01/25 10:10:27;;;;;;;50.85;25.63;;;4.50;99.90;;;;;;5034479;28;20569;-81
2022/01/25 10:12:55;;;;;;;47.00;24.33;;;4.50;99.90;;;;;;5033830;28;20050;-81
2022/01/25 10:15:26;;;;;;;50.45;26.52;;;4.50;99.90;;;;;;5001635;28;20081;-80
2022/01/25 10:17:52;;;;;;;50.70;25.40;;;4.50;99.90;;;;;;5008634;28;20447;-81
2022/01/25 10:20:30;;;;;;;49.03;25.67;;;4.50;99.90;;;;;;4986058;28;20046;-81
2022/01/25 10:22:59;;;;;;;48.42;26.27;;;4.50;99.90;;;;;;5009471;28;20037;-81
2022/01/25 10:25:36;;;;;;;49.08;25.73;;;5.50;99.90;;;;;;5034103;28;20298;-81
2022/01/25 10:28:04;;;;;;;47.30;24.80;;;4.50;99.90;;;;;;5002681;28;20448;-81
2022/01/25 10:30:39;;;;;;;51.55;26.63;;;4.50;99.90;;;;;;5034653;28;20057;-81
2022/01/25 10:33:16;;;;;;;46.15;24.50;;;4.50;99.90;;;;;;5034262;28;20196;-81
2022/01/25 10:35:42;;;;;;;47.80;25.73;;;4.50;99.90;;;;;;5002471;28;20064;-81
2022/01/25 10:38:34;;;;;;;47.30;26.17;;;4.50;99.90;;;;;;5018850;28;20399;-84
2022/01/25 10:41:06;;;;;;;48.35;26.23;;;4.50;99.90;;;;;;5001687;28;20385;-82
2022/01/25 10:43:32;;;;;;;47.00;24.83;;;4.50;99.90;;;;;;5016414;28;20566;-82
2022/01/25 10:46:07;;;;;;;44.15;25.10;;;3.60;99.90;;;;;;5034205;28;20049;-81
2022/01/25 10:48:34;;;;;;;43.28;24.65;;;4.50;99.90;;;;;;5034209;28;20083;-82
2022/01/25 10:51:07;;;;;;;47.30;26.42;;;4.50;99.90;;;;;;5016915;28;20045;-81
2022/01/25 10:53:34;;;;;;;43.92;24.80;;;4.50;99.90;;;;;;5034312;28;20050;-81
2022/01/25 10:56:00;;;;;;;45.70;24.52;;;3.50;99.90;;;;;;5001054;28;20144;-79
2022/01/25 10:58:27;;;;;;;44.47;23.67;;;4.50;99.90;;;;;;5022740;28;20296;-81
2022/01/25 11:00:54;;;;;;;42.63;23.05;;;4.50;99.90;;;;;;5048926;28;20414;-81
2022/01/25 11:03:36;;;;;;;43.08;24.13;;;4.50;99.90;;;;;;4989777;28;20800;-83
2022/01/25 11:06:15;;;;;;;46.80;25.13;;;4.60;99.90;;;;;;5018379;28;20073;-84
2022/01/25 11:08:43;;;;;;;47.95;24.63;;;4.50;99.90;;;;;;5033777;28;20058;-83
2022/01/25 11:11:11;;;;;;;46.00;24.92;;;4.50;99.90;;;;;;5033895;28;20148;-80
2022/01/25 11:13:41;;;;;;;51.30;25.77;;;4.50;99.90;;;;;;5030809;28;20546;-80
2022/01/25 11:16:12;;;;;;;45.58;25.60;;;4.50;99.90;;;;;;5001185;28;20992;-82
2022/01/25 11:18:38;;;;;;;48.20;24.90;;;4.50;99.90;;;;;;5019800;28;20125;-84
2022/01/25 11:21:07;;;;;;;50.03;25.50;;;4.40;99.90;;;;;;5020487;28;20038;-83
2022/01/25 11:23:37;;;;;;;43.63;23.88;;;4.40;99.90;;;;;;5044390;28;20069;-82
2022/01/25 11:26:06;;;;;;;44.33;24.85;;;4.40;99.90;;;;;;5031319;28;20045;-82
2022/01/25 11:28:33;;;;;;;47.55;25.30;;;4.40;99.90;;;;;;5015488;28;20065;-83
2022/01/25 11:31:02;;;;;;;47.30;24.25;;;4.40;99.90;;;;;;5000160;28;20103;-85
2022/01/25 11:33:31;;;;;;;47.47;25.42;;;4.40;99.90;;;;;;5032555;28;20580;-81
2022/01/25 11:35:58;;;;;;;51.17;26.50;;;4.40;99.90;;;;;;5014786;28;20928;-81
2022/01/25 11:38:33;;;;;;;51.10;25.88;;;4.90;99.90;;;;;;4983858;28;20438;-79
2022/01/25 11:40:58;;;;;;;44.17;24.73;;;4.40;99.90;;;;;;5017461;28;20407;-80
2022/01/25 11:43:24;;;;;;;51.88;25.98;;;4.40;99.90;;;;;;5033720;28;20053;-80
2022/01/25 11:45:57;;;;;;;47.67;26.10;;;4.40;99.90;;;;;;5017634;28;20052;-80
2022/01/25 11:48:33;;;;;;;51.42;24.95;;;4.70;99.90;;;;;;5018104;28;20075;-80
2022/01/25 11:51:00;;;;;;;;;;;4.80;99.90;;;;;;5049725;28;20042;-81
2022/01/25 11:53:29;;;;;;;48.17;25.02;;;4.50;99.90;;;;;;5043913;28;20437;-80
2022/01/25 11:55:55;;;;;;;47.38;25.83;;;4.40;99.90;;;;;;5030851;28;20037;-80
2022/01/25 11:58:28;;;;;;;46.58;25.02;;;5.40;99.90;;;;;;5047908;28;20053;-81
2022/01/25 12:00:57;;;;;;;48.63;25.83;;;4.40;99.90;;;;;;5005598;28;20100;-80
2022/01/25 12:03:33;;;;;;;45.55;25.08;;;4.40;99.90;;;;;;5047783;28;20612;-81
2022/01/25 12:06:04;;;;;;;;;;;4.40;99.90;;;;;;5032743;28;20193;-81
2022/01/25 12:12:07;;;;;;;49.53;26.35;;;4.40;99.90;;;;;;5012823;28;20049;-81
2022/01/25 12:14:54;;;;;;;50.38;25.20;;;4.40;99.90;;;;;;5009896;28;20543;-81
2022/01/25 12:17:32;;;;;;;52.65;25.75;;;4.30;99.90;;;;;;5036237;28;20049;-81
2022/01/25 12:20:16;;;;;;;52.65;26.73;;;5.10;99.90;;;;;;5053724;28;20046;-81
2022/01/25 12:22:47;;;;;;;52.67;26.75;;;4.40;99.90;;;;;;5051296;28;20411;-81
2022/01/25 12:25:19;;;;;;;47.92;25.77;;;4.50;99.90;;;;;;5003949;28;20165;-81
2022/01/25 12:27:58;;;;;;;47.05;24.42;;;4.40;99.90;;;;;;5005293;28;20064;-80
2022/01/25 12:30:30;;;;;;;50.40;25.27;;;4.40;99.90;;;;;;5017284;28;20057;-81
2022/01/25 12:33:03;;;;;;;45.28;24.33;;;4.40;99.90;;;;;;5023565;28;20056;-81
2022/01/25 12:35:34;;;;;;;44.00;24.48;;;5.60;99.90;;;;;;5020873;28;20046;-82
2022/01/25 12:38:04;;;;;;;53.65;26.15;;;4.40;99.90;;;;;;5019556;28;20045;-81
2022/01/25 12:40:35;;;;;;;44.90;24.30;;;4.40;99.90;;;;;;5021326;28;20056;-81
2022/01/25 12:43:01;;;;;;;43.63;23.90;;;4.40;99.90;;;;;;5018316;28;20127;-81
2022/01/25 12:45:40;;;;;;;49.90;23.50;;;4.40;99.90;;;;;;5003338;28;20042;-81
2022/01/25 12:48:34;;;;;;;44.50;24.75;;;4.40;99.90;;;;;;5051403;28;20057;-81
2022/01/25 12:51:07;;;;;;;48.35;25.40;;;4.40;99.90;;;;;;5010448;28;20064;-81
2022/01/25 12:53:41;;;;;;;48.40;24.85;;;3.20;99.90;;;;;;5018026;28;20054;-81
2022/01/25 12:56:19;;;;;;;46.63;25.05;;;4.40;99.90;;;;;;5035532;28;20125;-81
2022/01/25 12:58:47;;;;;;;44.70;24.52;;;4.40;99.90;;;;;;5018797;28;20148;-81
2022/01/25 13:01:15;;;;;;;46.28;25.05;;;4.40;99.90;;;;;;5036157;28;20073;-81
2022/01/25 13:03:50;;;;;;;53.83;24.90;;;4.40;99.90;;;;;;5033633;28;20057;-81
2022/01/25 13:06:23;;;;;;;45.72;25.10;;;4.40;99.90;;;;;;5036058;28;20049;-82
2022/01/25 13:08:56;;;;;;;46.38;23.58;;;4.50;99.90;;;;;;5001931;28;20480;-81
2022/01/25 13:11:38;;;;;;;45.35;25.35;;;5.30;99.90;;;;;;5019752;28;20060;-81
2022/01/25 13:14:18;;;;;;;50.33;24.23;;;4.30;99.90;;;;;;5001198;28;20046;-81
2022/01/25 13:17:04;;;;;;;65.90;25.33;;;4.30;99.90;;;;;;5018267;28;20049;-81
2022/01/25 13:19:51;;;;;;;57.88;26.13;;;4.30;99.90;;;;;;5034443;28;20049;-81
2022/01/25 13:22:20;;;;;;;47.95;24.17;;;4.40;99.90;;;;;;5037092;28;20108;-81
2022/01/25 13:25:54;;;;;;;50.13;23.75;;;5.00;99.90;;;;;;5037518;28;20049;-82
2022/01/25 13:27:50;;;;;;;49.30;24.73;;;5.40;99.90;;;;;;5007197;28;20050;-82
2022/01/25 13:30:45;;;;;;;46.85;22.75;;;5.00;99.90;;;;;;5034463;28;20045;-82
2022/01/25 13:33:13;;;;;;;46.47;24.20;;;4.30;99.90;;;;;;5007856;28;20124;-83
2022/01/25 13:35:46;;;;;;;48.47;23.95;;;4.30;99.90;;;;;;5017740;28;20064;-82
2022/01/25 13:38:36;;;;;;;50.13;24.65;;;4.30;99.90;;;;;;5034614;28;20048;-83
2022/01/25 13:46:32;;;;;;;54.03;25.25;;;4.30;99.90;;;;;;5017928;28;20172;-82
2022/01/25 13:49:04;;;;;;;46.13;23.55;;;5.10;99.90;;;;;;5051214;28;20049;-83
2022/01/25 13:51:50;;;;;;;48.42;23.65;;;4.30;99.90;;;;;;5034058;28;20053;-83
2022/01/25 13:54:18;;;;;;;45.30;24.07;;;4.30;99.90;;;;;;5017630;28;20049;-82
2022/01/25 13:56:45;;;;;;;44.50;24.10;;;4.30;99.90;;;;;;4991161;28;20116;-81
2022/01/25 13:59:11;;;;;;;92.32;28.10;;;4.30;99.90;;;;;;5001570;28;20048;-81
2022/01/25 14:01:40;;;;;;;76.05;26.33;;;4.30;99.90;;;;;;5015680;28;20111;-81
2022/01/25 14:04:16;;;;;;;59.72;24.48;;;4.30;99.90;;;;;;5049563;28;22003;-86
2022/01/25 14:06:44;;;;;;;50.05;24.63;;;4.30;99.90;;;;;;5001358;28;20050;-82
2022/01/25 14:09:28;;;;;;;45.20;23.83;;;4.20;99.90;;;;;;5003640;28;20586;-82
2022/01/25 14:25:38;;;;;;;47.45;23.92;;;5.40;99.90;;;;;;5051857;28;20057;-81
2022/01/25 14:28:08;;;;;;;44.65;23.15;;;4.10;99.90;;;;;;5037052;28;20041;-81
2022/01/25 14:30:36;;;;;;;50.72;25.95;;;4.60;99.90;;;;;;5047887;28;20451;-81
2022/01/25 14:33:12;;;;;;;47.55;23.25;;;4.10;99.90;;;;;;5002809;28;20410;-82
2022/01/25 14:35:53;;;;;;;47.60;23.60;;;5.10;99.90;;;;;;5006344;28;20057;-82
2022/01/25 14:38:29;;;;;;;45.10;23.30;;;4.10;99.90;;;;;;5016532;28;20052;-82
2022/01/25 14:41:14;;;;;;;47.45;24.42;;;4.10;99.90;;;;;;5031897;28;20478;-81
2022/01/25 14:43:50;;;;;;;48.20;23.85;;;4.00;99.90;;;;;;5049499;28;20394;-81
2022/01/25 14:46:18;;;;;;;48.47;23.48;;;4.10;99.90;;;;;;5036255;28;20045;-82
2022/01/25 14:48:54;;;;;;;44.72;23.48;;;4.10;99.90;;;;;;5049220;28;20149;-82
2022/01/25 14:51:20;;;;;;;47.47;23.23;;;4.00;99.90;;;;;;5052195;28;20074;-81
2022/01/25 14:53:46;;;;;;;47.25;24.10;;;4.00;99.90;;;;;;5050525;28;20053;-82
2022/01/25 14:56:14;;;;;;;46.85;24.08;;;4.00;99.90;;;;;;5017566;28;20041;-82
2022/01/25 15:01:22;;;;;;;50.05;24.08;;;4.00;99.90;;;;;;5049241;28;20521;-82
2022/01/25 15:03:50;;;;;;;44.10;23.55;;;4.00;99.90;;;;;;5004186;28;20049;-82
2022/01/25 15:06:18;;;;;;;48.58;24.45;;;4.00;99.90;;;;;;5019063;28;20049;-81